createdAt,value
2023-01-19T00:00:48.889Z,9.70
2023-01-19T00:05:52.752Z,9.63
2023-01-19T00:10:56.277Z,9.87
2023-01-19T00:16:01.326Z,9.48
2023-01-19T00:21:04.195Z,9.13
2023-01-19T00:26:14.129Z,10.47
2023-01-19T00:31:22.109Z,9.82
2023-01-19T00:36:27.321Z,9.38
2023-01-19T00:41:44.161Z,9.37
2023-01-19T00:46:48.501Z,9.50
2023-01-19T00:51:51.575Z,9.40
2023-01-19T00:56:55.059Z,9.33
2023-01-19T01:02:03.681Z,9.50
2023-01-19T01:07:08.649Z,9.82
2023-01-19T01:12:11.928Z,9.60
2023-01-19T01:17:18.254Z,9.70
2023-01-19T01:22:21.063Z,9.85
2023-01-19T01:27:24.554Z,10.18
2023-01-19T01:32:31.315Z,10.23
2023-01-19T01:37:36.452Z,9.68
2023-01-19T01:42:41.061Z,9.57
2023-01-19T01:47:57.548Z,9.70
2023-01-19T01:53:07.639Z,9.27
2023-01-19T01:58:12.911Z,9.05
2023-01-19T02:03:18.686Z,9.45
2023-01-19T02:08:46.953Z,9.40
2023-01-19T02:13:50.958Z,9.10
2023-01-19T02:18:55.365Z,8.82
2023-01-19T02:24:04.368Z,9.20
2023-01-19T02:29:11.450Z,9.38
2023-01-19T02:34:18.288Z,8.88
2023-01-19T02:39:28.723Z,8.77
2023-01-19T02:44:34.429Z,8.80
2023-01-19T02:49:39.072Z,9.40
2023-01-19T02:54:57.774Z,9.15
2023-01-19T03:00:13.708Z,8.50
2023-01-19T03:05:31.396Z,8.40
2023-01-19T03:10:45.386Z,8.23
2023-01-19T03:15:51.526Z,8.43
2023-01-19T03:20:59.440Z,7.95
2023-01-19T03:26:06.990Z,8.05
2023-01-19T03:31:17.780Z,7.37
2023-01-19T03:36:26.025Z,8.47
2023-01-19T03:41:34.358Z,7.40
2023-01-19T03:46:39.143Z,8.20
2023-01-19T03:51:42.399Z,7.87
2023-01-19T03:56:54.164Z,8.13
2023-01-19T04:02:15.569Z,7.60
2023-01-19T04:07:20.631Z,7.30
2023-01-19T04:12:46.186Z,7.53
2023-01-19T04:25:03.640Z,6.77
2023-01-19T04:30:13.440Z,7.07
2023-01-19T04:35:32.447Z,7.30
2023-01-19T04:40:51.394Z,6.85
2023-01-19T04:46:11.906Z,7.00
2023-01-19T04:51:15.286Z,7.03
2023-01-19T04:56:20.839Z,6.78
2023-01-19T05:01:40.681Z,7.10
2023-01-19T05:06:46.859Z,7.07
2023-01-19T05:11:55.650Z,6.00
2023-01-19T05:17:05.139Z,7.00
2023-01-19T05:22:10.367Z,7.60
2023-01-19T05:27:14.894Z,7.15
2023-01-19T05:32:21.230Z,6.95
2023-01-19T05:37:27.618Z,7.13
2023-01-19T05:42:39.284Z,6.80
2023-01-19T05:47:48.335Z,7.22
2023-01-19T05:52:54.085Z,7.50
2023-01-19T05:57:57.110Z,6.32
2023-01-19T06:03:02.657Z,6.55
2023-01-19T06:08:06.557Z,6.67
2023-01-19T06:13:11.509Z,7.20
2023-01-19T06:18:16.430Z,6.47
2023-01-19T06:23:21.839Z,6.50
2023-01-19T06:28:26.040Z,6.93
2023-01-19T06:33:30.461Z,6.57
2023-01-19T06:38:33.708Z,7.28
2023-01-19T06:43:37.465Z,6.87
2023-01-19T06:48:42.154Z,6.80
2023-01-19T06:53:47.310Z,7.03
2023-01-19T06:58:50.610Z,7.20
2023-01-19T07:03:54.906Z,6.80
2023-01-19T07:09:01.057Z,7.07
2023-01-19T07:14:04.162Z,7.03
2023-01-19T07:19:11.050Z,6.97
2023-01-19T07:24:14.085Z,6.80
2023-01-19T07:29:16.837Z,6.55
2023-01-19T07:34:23.177Z,7.20
2023-01-19T07:39:27.440Z,7.00
2023-01-19T07:49:48.763Z,6.23
2023-01-19T07:54:52.078Z,7.10
2023-01-19T07:59:55.279Z,6.93
2023-01-19T08:05:01.669Z,6.80
2023-01-19T08:10:05.039Z,7.03
2023-01-19T08:15:16.657Z,7.15
2023-01-19T08:20:24.279Z,6.47
2023-01-19T08:31:05.327Z,7.10
2023-01-19T08:36:17.259Z,6.75
2023-01-19T08:41:19.826Z,6.70
2023-01-19T08:46:23.747Z,6.57
2023-01-19T08:51:26.450Z,6.80
2023-01-19T08:56:29.730Z,6.60
2023-01-19T09:01:33.678Z,6.70
2023-01-19T09:06:36.346Z,6.35
2023-01-19T09:11:38.860Z,6.78
2023-01-19T09:16:43.302Z,6.77
2023-01-19T09:21:45.806Z,6.70
2023-01-19T09:26:48.308Z,5.88
2023-01-19T09:31:52.246Z,7.30
2023-01-19T09:36:55.023Z,7.00
2023-01-19T09:42:06.776Z,7.18
2023-01-19T09:47:17.518Z,6.90
2023-01-19T09:52:20.611Z,7.27
2023-01-19T09:57:23.623Z,7.75
2023-01-19T10:02:37.298Z,7.38
2023-01-19T10:07:58.120Z,7.40
2023-01-19T10:13:16.890Z,6.67
2023-01-19T10:18:26.412Z,7.32
2023-01-19T10:23:42.307Z,6.85
2023-01-19T10:28:48.015Z,7.23
2023-01-19T10:33:52.232Z,7.20
2023-01-19T10:38:54.836Z,7.10
2023-01-19T10:44:02.869Z,7.17
2023-01-19T10:49:07.688Z,7.15
2023-01-19T10:54:14.152Z,7.20
2023-01-19T10:59:31.978Z,6.80
2023-01-19T11:04:35.809Z,7.40
2023-01-19T11:09:38.283Z,7.35
2023-01-19T11:14:40.880Z,7.57
2023-01-19T11:19:53.134Z,6.90
2023-01-19T11:25:03.155Z,7.18
2023-01-19T11:30:15.839Z,7.30
2023-01-19T11:35:38.613Z,6.70
2023-01-19T11:40:42.859Z,7.18
2023-01-19T11:45:46.856Z,6.78
2023-01-19T11:50:51.264Z,7.47
2023-01-19T11:55:58.535Z,7.30
2023-01-19T12:01:06.162Z,6.65
2023-01-19T12:06:13.430Z,7.03
2023-01-19T12:11:20.094Z,6.60
2023-01-19T12:16:23.907Z,6.85
2023-01-19T12:21:27.812Z,7.30
2023-01-19T12:26:36.702Z,7.43
2023-01-19T12:31:42.767Z,6.50
2023-01-19T12:36:46.748Z,6.88
2023-01-19T12:41:51.012Z,7.13
2023-01-19T12:46:57.309Z,7.13
2023-01-19T12:52:30.686Z,7.13
2023-01-19T12:57:36.571Z,7.38
2023-01-19T13:02:44.388Z,7.50
2023-01-19T13:08:23.529Z,7.13
2023-01-19T13:13:28.014Z,6.60
2023-01-19T13:18:35.029Z,7.30
2023-01-19T13:29:11.703Z,6.88
2023-01-19T13:34:17.743Z,6.67
2023-01-19T13:39:27.715Z,6.68
2023-01-19T13:44:37.252Z,6.18
2023-01-19T13:49:43.908Z,6.67
2023-01-19T13:54:51.253Z,6.15
2023-01-19T14:00:16.488Z,6.68
2023-01-19T14:05:23.941Z,6.63
2023-01-19T14:10:26.915Z,6.63
2023-01-19T14:15:34.764Z,6.57
2023-01-19T14:20:39.579Z,6.50
2023-01-19T14:25:46.216Z,6.90
2023-01-19T14:30:58.267Z,6.60
2023-01-19T14:36:10.677Z,6.65
2023-01-19T14:41:22.643Z,6.80
2023-01-19T14:46:47.800Z,6.38
2023-01-19T14:51:52.428Z,6.75
2023-01-19T14:56:57.327Z,7.07
2023-01-19T15:02:06.674Z,6.43
2023-01-19T15:07:18.447Z,6.45
2023-01-19T15:12:28.463Z,7.15
2023-01-19T15:17:34.105Z,6.50
2023-01-19T15:22:38.966Z,6.95
2023-01-19T15:27:42.510Z,7.70
2023-01-19T15:32:47.277Z,9.43
2023-01-19T15:37:51.859Z,8.20
2023-01-19T15:42:55.052Z,8.15
2023-01-19T15:48:00.004Z,8.30
2023-01-19T15:53:04.035Z,7.53
2023-01-19T15:58:08.959Z,11.40
2023-01-19T16:03:15.940Z,8.32
2023-01-19T16:08:20.037Z,7.67
2023-01-19T16:13:23.032Z,7.97
2023-01-19T16:18:28.807Z,8.48
2023-01-19T16:23:31.769Z,9.53
2023-01-19T16:28:35.753Z,8.15
2023-01-19T16:33:39.980Z,7.72
2023-01-19T16:38:43.226Z,8.17
2023-01-19T16:43:51.649Z,8.03
2023-01-19T16:49:01.568Z,8.65
2023-01-19T16:54:05.924Z,8.70
2023-01-19T16:59:11.941Z,8.57
2023-01-19T17:04:20.368Z,8.68
2023-01-19T17:09:23.316Z,9.10
2023-01-19T17:14:26.239Z,9.07
2023-01-19T17:19:35.813Z,8.57
2023-01-19T17:24:42.566Z,10.00
2023-01-19T17:29:52.704Z,10.63
2023-01-19T17:34:58.957Z,9.10
2023-01-19T17:40:04.457Z,9.18
2023-01-19T17:45:08.482Z,9.57
2023-01-19T17:50:14.794Z,140.63
2023-01-19T17:55:29.148Z,18.75
2023-01-19T18:00:33.025Z,40.63
2023-01-19T18:05:38.339Z,14.40
2023-01-19T18:10:42.896Z,15.57
2023-01-19T18:15:52.479Z,134.02
2023-01-19T18:20:59.571Z,88.53
2023-01-19T18:26:04.891Z,85.63
2023-01-19T18:31:09.520Z,131.43
2023-01-19T18:42:50.013Z,95.63
2023-01-19T18:47:53.387Z,334.15
2023-01-19T18:52:57.571Z,198.85
2023-01-19T18:58:05.693Z,49.37
2023-01-19T19:15:17.783Z,131.77
2023-01-19T19:40:02.663Z,40.20
2023-01-19T19:51:19.672Z,16.40
2023-01-19T19:56:28.440Z,10.37
2023-01-19T20:01:34.613Z,8.40
2023-01-19T20:06:41.815Z,11.80
2023-01-19T20:17:14.582Z,13.13
2023-01-19T20:22:19.965Z,11.18
2023-01-19T20:27:24.477Z,17.02
2023-01-19T20:32:27.704Z,12.10
2023-01-19T20:37:34.483Z,15.05
2023-01-19T20:42:41.698Z,12.85
2023-01-19T20:48:06.101Z,11.30
2023-01-19T20:53:18.951Z,11.95
2023-01-19T20:58:23.056Z,10.45
2023-01-19T21:03:29.846Z,10.10
2023-01-19T21:08:34.854Z,13.97
2023-01-19T21:13:38.860Z,13.57
2023-01-19T21:18:47.587Z,13.00
2023-01-19T21:24:04.945Z,9.57
2023-01-19T21:29:14.921Z,9.60
2023-01-19T21:34:28.506Z,10.35
2023-01-19T21:39:37.435Z,13.50
2023-01-19T21:44:41.835Z,9.63
2023-01-19T21:49:48.265Z,10.13
2023-01-19T21:54:53.045Z,10.83
2023-01-19T22:00:00.012Z,10.30
2023-01-19T22:05:03.371Z,10.10
2023-01-19T22:10:30.136Z,10.20
2023-01-19T22:15:39.502Z,9.27
2023-01-19T22:20:42.971Z,9.80
2023-01-19T22:25:48.868Z,9.27
2023-01-19T22:30:52.272Z,9.20
2023-01-19T22:35:56.115Z,8.50
2023-01-19T22:41:30.206Z,9.25
2023-01-19T22:52:21.331Z,8.85
2023-01-19T22:57:23.875Z,8.77
2023-01-19T23:02:26.339Z,8.17
2023-01-19T23:07:30.159Z,8.10
2023-01-19T23:12:32.646Z,8.13
2023-01-19T23:17:35.147Z,8.13
2023-01-19T23:22:39.769Z,7.93
2023-01-19T23:27:42.238Z,8.52
2023-01-19T23:32:48.209Z,7.05
2023-01-19T23:37:52.053Z,7.40
2023-01-19T23:42:55.838Z,7.30
2023-01-19T23:47:58.319Z,7.60
2023-01-19T23:53:02.128Z,7.43
2023-01-19T23:58:04.663Z,6.87
